Monticello, IN (47960)

8:51 AM EDT on July 23, 2014 (GMT -0400)
Bluewater Drive (KINMONTI6) Elev 623 ft | 40.76 °N, 86.75 °W | Change Station

Current weather conditions updated 4 minutes ago

Partly Cloudy
Partly Cloudy
69.1 °F
Feels Like 69.1 °F
N
2.7
Wind Variable Wind from West

Today is forecast to be Much Cooler than yesterday.

Today
High -- | Low -- °F
--% Chance of Precip.
Yesterday
High -- | Low -- °F
Precip. -- in
6:35 AM 9:11 PM
Waning Crescent, 10% visible
Pressure 30.07 in
Visibility 1.2 miles
Clouds Overcast 300 ft
Dew Point 68 °F
Humidity 98%
Rainfall 0.58 in
Snow Depth Not available.
UV 0 out of 12
Pollen 6.20 out of 12
Air Quality Not available.
Flu Activity Not available.
METAR KGGP 231235Z AUTO 33007KT 1 1/4SM DZ OVC003 20/20 A3007 RMK AO2

More Conditions Fewer Conditions

Pressure 30.07 in
Visibility 1.2 miles
Clouds Overcast 300 ft
Dew Point 68 °F
Humidity 98%
Rainfall 0.58 in
Snow Depth Not available.
UV 0 out of 12
Pollen 6.20 out of 12
Air Quality Not available.
Flu Activity Not available.
METAR KGGP 231235Z AUTO 33007KT 1 1/4SM DZ OVC003 20/20 A3007 RMK AO2

More Conditions Fewer Conditions

10-Day Weather Forecast

Almanac

Astronomy

Jul. 23, 2014 Rise Set
Actual Time 6:35 AM EDT 9:11 PM EDT
Civil Twilight 6:03 AM EDT 9:42 PM EDT
Nautical Twilight 5:24 AM EDT 10:22 PM EDT
Astronomical Twilight 4:39 AM EDT 11:06 PM EDT
Moon 3:54 AM EDT 6:39 PM EDT
Length of Visible Light 15h 39m
Length of Day
14h 35m
Tomorrow will be 1m 45s shorter.
Waning Crescent, 10% of the Moon is Illuminated
Today
Waning Crescent
Jul 26
New
Aug 3
First Quarter
Aug 10
Full
Aug 17
Last Quarter

Today's Extremes

State Highs State Lows

Community

WunderPhotos

Upload Photos

1,736,582 photos uploaded!

Nearby

Snow Depth

Station Depth Elevation
No new snow has been reported.

Earthquake Activity

City Distance Mag. Time & Date
No recent earthquake activity has been reported nearby.
Minimum magnitude displayed is 2.5.

Coastal Water Temperatures

Place Temperature
No Stations Reporting

Nearby Weather Stations

Station Location Temp. Dew Point Humidity Wind Precip. Elev Updated Type
Bluewater Drive, Monticello, IN 69.1 °F 68 °F 98% West  at  2.7 mph - / hr 623 ft 8:46 AM EDT Normal
Prophet's Ridge, West Lafayette, IN 68.2 °F 66 °F 92% North  at  2.0 mph 0.00 in / hr 679 ft 8:50 AM EDT Normal
Carroll Jr/Sr High School, Flora, IN 69.2 °F 65 °F 86% NNW  at  5.1 mph 0.01 in / hr 715 ft 8:50 AM EDT Normal
Pine View Farms, West Lafayette, IN 70.4 °F 67 °F 88% NE  at  3.6 mph 0.00 in / hr 696 ft 8:50 AM EDT Rapid Fire
Pettit, IN 47905, Lafayette, IN 69.8 °F 68 °F 94% NNW  at  3.8 mph - / hr 682 ft 8:49 AM EDT Normal
Windsor Forest, Logansport, IN 69.9 °F 70 °F 99% NW  at  0.0 mph 0.01 in / hr 669 ft 8:50 AM EDT Rapid Fire

Show More Stations Show Fewer Stations